Chinese Camp, California
Current Conditions -  °F | °C
As of 1:15 PM on Friday 24 Oct 2014 (Local Time) from KO22 Reporting Station
Clear Clear  
Wind Chill: 81°   Ceiling: Unl
Heat Index: 81°   Visibility: 10mi
Dew Point: 32°   Wind: 8mph
Humidity: 17%   Direction: 180°S
Pressure: 29.96"   Gusts: 16mph
Location:  37.87°N, 120.43°W
Report Text: KO22 242015Z AUTO 18007G14KT 10SM CLR 27/00 A2996 RMK AO1
Loading
Personal Weather Stations






























Interactive Weather Map
Tropical Storm Tracking
New forecast layout! Learn more

10-Day Weather Forecast

Advertisements
Track Severe Weather on mobile